Tom Frazier — WDD4376 — position and weather

sailwx.info

Track history (hours):
 
Tides and Currents Weather Stations Pressure Air Temp Water Temp Dewpoint Dewpoint Depression Visibility Wind Speed Wind Dir Waves Ship Positions

Tom Frazier

Owner: American Commercial Lines LLC, Jeffersonville, IN. More information available from US FCC via Universal Licensing System and Coast Guard Vessel Documentation Center.

Last reported at 2015-Aug-26 00:33 UTC. Time now 2015-Sep-04 10:30 UTC.
Position N 38°57' W 084°50'.
Warning: this ship's position is 9 days out of date.

Length 48 m; draft 2.9 m.

MMSI: 367143910.

Date/timePositionNaut miles runAvg speedWind from/ knotsBaromVisibWave heightAir tempDewpointWater temp
2015-Aug-26 00:33N 38°57' W 084°50'7 5.2
2015-Aug-25 23:10N 39°04' W 084°53'4 6.0
2015-Aug-25 22:33N 39°06' W 084°49'5 5.1
2015-Aug-25 21:33N 39°08' W 084°43'3 2.7
2015-Aug-25 20:33N 39°06' W 084°41'0 0.0
2015-Aug-25 19:32N 39°06' W 084°41'0 0.0
2015-Aug-25 18:32N 39°06' W 084°41'0 0.0
2015-Aug-25 17:32N 39°06' W 084°41'0 0.0
2015-Aug-25 16:31N 39°06' W 084°41'0 0.0
2015-Aug-25 15:32N 39°06' W 084°41'0 0.0
2015-Aug-25 14:33N 39°06' W 084°41'0 0.0
2015-Aug-25 13:32N 39°06' W 084°41'3 3.1
2015-Aug-25 12:33N 39°04' W 084°38'4 4.2
2015-Aug-25 11:33N 39°06' W 084°33'5 4.5
2015-Aug-25 10:33N 39°07' W 084°27'5 4.9
2015-Aug-25 09:33N 39°03' W 084°24'5 5.1
2015-Aug-25 08:33N 38°60' W 084°18'6 5.4
2015-Aug-25 07:33N 38°55' W 084°15'6 5.4
2015-Aug-25 06:28N 38°49' W 084°14'3 3.4
2015-Aug-25 05:33N 38°48' W 084°10'3 2.9
2015-Aug-25 04:31N 38°47' W 084°07'12 5.3
2015-Aug-25 02:18N 38°45' W 083°52'  
2015-Aug-16 14:31N 38°40' W 083°23'4 4.3
2015-Aug-16 13:33N 38°40' W 083°28'2 1.9
2015-Aug-16 12:24N 38°42' W 083°30'14 1.3
2015-Aug-16 01:30N 38°42' W 083°49'  
Track history (hours):
 
Tides and Currents Weather Stations Pressure Air Temp Water Temp Dewpoint Dewpoint Depression Visibility Wind Speed Wind Dir Waves Ship Positions

Tom Frazier

Owner: American Commercial Lines LLC, Jeffersonville, IN. More information available from US FCC via Universal Licensing System and Coast Guard Vessel Documentation Center.

Last reported at 2015-Aug-26 00:33 UTC. Time now 2015-Sep-04 10:30 UTC.
Position N 38°57' W 084°50'.
Warning: this ship's position is 9 days out of date.

Length 48 m; draft 2.9 m.

MMSI: 367143910.

Date/timePositionNaut miles runAvg speedWind from/ knotsBaromVisibWave heightAir tempDewpointWater temp
2015-Aug-26 00:33N 38°57' W 084°50'7 5.2
2015-Aug-25 23:10N 39°04' W 084°53'4 6.0
2015-Aug-25 22:33N 39°06' W 084°49'5 5.1
2015-Aug-25 21:33N 39°08' W 084°43'3 2.7
2015-Aug-25 20:33N 39°06' W 084°41'0 0.0
2015-Aug-25 19:32N 39°06' W 084°41'0 0.0
2015-Aug-25 18:32N 39°06' W 084°41'0 0.0
2015-Aug-25 17:32N 39°06' W 084°41'0 0.0
2015-Aug-25 16:31N 39°06' W 084°41'0 0.0
2015-Aug-25 15:32N 39°06' W 084°41'0 0.0
2015-Aug-25 14:33N 39°06' W 084°41'0 0.0
2015-Aug-25 13:32N 39°06' W 084°41'3 3.1
2015-Aug-25 12:33N 39°04' W 084°38'4 4.2
2015-Aug-25 11:33N 39°06' W 084°33'5 4.5
2015-Aug-25 10:33N 39°07' W 084°27'5 4.9
2015-Aug-25 09:33N 39°03' W 084°24'5 5.1
2015-Aug-25 08:33N 38°60' W 084°18'6 5.4
2015-Aug-25 07:33N 38°55' W 084°15'6 5.4
2015-Aug-25 06:28N 38°49' W 084°14'3 3.4
2015-Aug-25 05:33N 38°48' W 084°10'3 2.9
2015-Aug-25 04:31N 38°47' W 084°07'12 5.3
2015-Aug-25 02:18N 38°45' W 083°52'  
2015-Aug-16 14:31N 38°40' W 083°23'4 4.3
2015-Aug-16 13:33N 38°40' W 083°28'2 1.9
2015-Aug-16 12:24N 38°42' W 083°30'14 1.3
2015-Aug-16 01:30N 38°42' W 083°49'  

Dump ship's entire track history